Time;durP1;ratioP1;P1;durP2;ratioP2;P2;SDS_P1;SDS_P2;PMS_P1;PMS_P2;Temp;Humidity;BMP_temperature;BMP_pressure;BME280_temperature;BME280_humidity;BME280_pressure;Samples;Min_cycle;Max_cycle;Signal;HPM_P1;HPM_P2
2021/11/17 02:29:36;;;;;;;;;;;;;;;;;;10215193;28;20034;-64
2021/11/17 02:34:37;;;;;;;4.45;3.05;;;;;;;;;;10214665;28;20398;-64
2021/11/17 02:39:37;;;;;;;7.68;4.13;;;;;;;;;;10194691;28;20037;-64
2021/11/17 02:44:41;;;;;;;9.35;2.80;;;;;;;;;;10176457;28;20042;-65
2021/11/17 02:49:38;;;;;;;9.00;3.75;;;;;;;;;;10207135;28;20038;-64
2021/11/17 02:54:54;;;;;;;8.77;3.10;;;;;;;;;;10189364;28;20035;-63
2021/11/17 03:00:12;;;;;;;8.07;3.63;;;;;;;;;;10213218;28;20588;-62
2021/11/17 03:05:15;;;;;;;9.68;4.68;;;;;;;;;;10208964;28;20046;-63
2021/11/17 03:10:21;;;;;;;9.88;3.63;;;;;;;;;;10218976;28;20026;-63
2021/11/17 03:15:28;;;;;;;8.48;3.40;;;;;;;;;;10219051;28;20515;-63
2021/11/17 03:20:25;;;;;;;11.77;5.10;;;;;;;;;;10200466;28;20500;-63
2021/11/17 03:25:32;;;;;;;9.97;4.30;;;;;;;;;;10218749;28;20050;-62
2021/11/17 03:30:32;;;;;;;13.73;4.28;;;;;;;;;;10218334;28;20041;-62
2021/11/17 03:35:35;;;;;;;10.60;3.92;;;;;;;;;;10216973;28;20478;-62
2021/11/17 03:40:39;;;;;;;9.20;4.85;;;;;;;;;;10217267;28;20038;-60
2021/11/17 03:45:39;;;;;;;10.65;3.92;;;;;;;;;;10216591;28;20133;-62
2021/11/17 03:50:42;;;;;;;7.75;4.50;;;;;;;;;;10216364;28;20042;-61
2021/11/17 03:55:52;;;;;;;17.17;6.43;;;;;;;;;;10224591;28;20425;-62
2021/11/17 04:01:08;;;;;;;14.32;5.50;;;;;;;;;;10223682;28;20581;-62
2021/11/17 04:06:09;;;;;;;12.02;5.28;;;;;;;;;;10224792;28;20076;-62
2021/11/17 04:11:21;;;;;;;15.88;5.85;;;;;;;;;;10225668;28;20037;-60
2021/11/17 04:16:41;;;;;;;15.02;6.60;;;;;;;;;;10225230;28;20049;-62
2021/11/17 04:21:57;;;;;;;12.00;6.40;;;;;;;;;;10207207;28;20042;-63
2021/11/17 04:27:24;;;;;;;11.98;4.78;;;;;;;;;;10217450;28;20154;-62
2021/11/17 04:32:21;;;;;;;9.35;4.50;;;;;;;;;;10191460;28;20070;-62
2021/11/17 04:37:19;;;;;;;16.53;6.20;;;;;;;;;;10224361;28;20069;-62
2021/11/17 04:42:35;;;;;;;19.63;7.00;;;;;;;;;;10223101;28;20396;-63
2021/11/17 04:47:52;;;;;;;11.52;5.25;;;;;;;;;;10224369;28;20042;-62
2021/11/17 04:53:09;;;;;;;16.77;6.22;;;;;;;;;;10220822;28;20054;-62
2021/11/17 04:58:12;;;;;;;19.73;7.38;;;;;;;;;;10198373;28;20527;-64
2021/11/17 05:03:16;;;;;;;9.70;5.13;;;;;;;;;;10207185;28;20124;-64
2021/11/17 05:08:28;;;;;;;12.80;6.80;;;;;;;;;;10203987;28;20053;-64
2021/11/17 05:13:26;;;;;;;20.33;7.68;;;;;;;;;;10212716;28;20042;-64
2021/11/17 05:18:26;;;;;;;20.63;6.70;;;;;;;;;;10215785;28;20046;-65
2021/11/17 05:23:42;;;;;;;19.55;6.40;;;;;;;;;;10221986;28;20510;-65
2021/11/17 05:28:39;;;;;;;28.27;10.30;;;;;;;;;;10188932;28;20591;-63
2021/11/17 05:33:49;;;;;;;24.67;7.83;;;;;;;;;;10181192;28;20633;-64
2021/11/17 05:38:49;;;;;;;34.00;10.52;;;;;;;;;;10208077;28;20703;-66
2021/11/17 05:44:01;;;;;;;26.77;8.68;;;;;;;;;;10204603;28;20570;-64
2021/11/17 05:49:08;;;;;;;30.17;10.13;;;;;;;;;;10199909;28;20093;-65
2021/11/17 05:54:05;;;;;;;25.85;8.82;;;;;;;;;;10194277;28;20042;-63
2021/11/17 05:59:05;;;;;;;24.03;9.80;;;;;;;;;;10202686;28;20042;-64
2021/11/17 06:04:04;;;;;;;28.40;9.43;;;;;;;;;;10201211;28;20058;-64
2021/11/17 06:09:02;;;;;;;22.85;9.55;;;;;;;;;;10204941;28;20389;-64
2021/11/17 06:14:01;;;;;;;26.73;10.43;;;;;;;;;;10205919;28;20039;-63
2021/11/17 06:18:58;;;;;;;33.03;11.57;;;;;;;;;;10199530;28;20038;-63
2021/11/17 06:23:57;;;;;;;24.50;8.80;;;;;;;;;;10206932;28;20034;-63
2021/11/17 06:29:00;;;;;;;29.48;10.02;;;;;;;;;;10201152;28;20038;-61
2021/11/17 06:33:57;;;;;;;26.80;9.05;;;;;;;;;;10198826;28;20042;-62
2021/11/17 06:38:55;;;;;;;29.73;11.83;;;;;;;;;;10201331;28;20481;-62
